Terminal Aerodrome Forecast
Issued by NWS Cleveland, OH

Home | Current Version | Previous Version | Graphics & Text | Print | Product List | Glossary On
Versions: 1 2 3 4 5 6 7 8 9 10 11 12 13 14 15 16 17 18
000
FTUS41 KCLE 240528
TAFTOL
TAF
KTOL 240528Z 2406/2506 11005KT 5SM -SHRA BR OVC040
     FM240800 20010KT P6SM OVC060 WS020/23050KT
     FM241600 22015G25KT P6SM BKN060
     FM241800 22015G25KT P6SM OVC250
     FM250000 23010G20KT P6SM OVC035=

USA.gov is the U.S. government's official web portal to all federal, state and local government web resources and services.